Time;durP1;ratioP1;P1;durP2;ratioP2;P2;SDS_P1;SDS_P2;PMS_P1;PMS_P2;Temp;Humidity;BMP_temperature;BMP_pressure;BME280_temperature;BME280_humidity;BME280_pressure;Samples;Min_cycle;Max_cycle;Signal;HPM_P1;HPM_P2
2022/07/11 00:00:16;;;;;;;19.40;2.97;;;;;;;25.00;46.84;98958.75;10256044;29;20051;-68
2022/07/11 00:05:17;;;;;;;14.77;2.70;;;;;;;24.86;46.02;98962.53;10265272;28;20036;-68
2022/07/11 00:10:18;;;;;;;21.13;2.80;;;;;;;24.89;45.81;98983.66;10255470;29;20047;-69
2022/07/11 00:15:18;;;;;;;20.33;3.17;;;;;;;24.26;45.72;98893.38;10255934;29;20035;-68
2022/07/11 00:20:19;;;;;;;17.83;2.95;;;;;;;24.63;46.12;99002.28;10255714;28;20054;-68
2022/07/11 00:25:20;;;;;;;19.98;2.67;;;;;;;24.58;45.79;98971.38;10256179;28;20050;-68
2022/07/11 00:30:21;;;;;;;20.60;2.80;;;;;;;24.61;45.21;98942.81;10256286;29;20061;-68
2022/07/11 00:35:22;;;;;;;17.23;3.00;;;;;;;24.33;45.07;98909.28;10255813;29;20070;-69
2022/07/11 00:40:23;;;;;;;18.25;2.78;;;;;;;24.58;44.60;98925.22;10254589;29;20134;-69
2022/07/11 00:45:23;;;;;;;13.45;2.65;;;;;;;24.17;44.96;98845.47;10273570;28;20454;-68
2022/07/11 00:50:27;;;;;;;25.58;3.05;;;;;;;24.16;45.49;98809.41;10294905;28;20042;-68
2022/07/11 00:55:28;;;;;;;13.65;2.15;;;;;;;24.37;45.81;98828.88;10294312;28;20498;-67
2022/07/11 01:00:29;;;;;;;6.72;1.70;;;;;;;23.63;46.93;98737.22;10294217;28;20047;-68
2022/07/11 01:05:30;;;;;;;17.83;2.42;;;;;;;23.71;48.24;98740.38;10293507;28;20039;-68
2022/07/11 01:10:32;;;;;;;18.80;2.47;;;;;;;24.25;48.82;98847.53;10293796;28;20038;-68
2022/07/11 01:15:35;;;;;;;22.15;2.80;;;;;;;24.09;50.38;98798.94;10294715;28;20043;-68
2022/07/11 01:20:36;;;;;;;13.20;1.75;;;;;;;23.88;50.50;98765.09;10292819;28;20422;-68
2022/07/11 01:25:37;;;;;;;19.88;3.00;;;;;;;24.67;50.98;98909.06;10293115;28;20057;-68
2022/07/11 01:30:38;;;;;;;18.75;2.63;;;;;;;24.46;51.84;98881.44;10292264;28;20066;-68
2022/07/11 01:35:39;;;;;;;16.05;1.73;;;;;;;24.55;52.22;98897.84;10293403;28;20043;-68
2022/07/11 01:40:40;;;;;;;10.25;2.08;;;;;;;24.76;51.98;98926.28;10324033;28;20410;-68
2022/07/11 01:45:41;;;;;;;7.82;1.73;;;;;;;24.83;52.32;98975.63;10292029;28;20105;-68
2022/07/11 01:50:42;;;;;;;15.55;1.98;;;;;;;24.89;51.93;98975.53;10292508;28;20113;-68
2022/07/11 01:55:44;;;;;;;23.08;2.50;;;;;;;24.95;52.74;99006.94;10292591;28;20525;-68
2022/07/11 02:00:44;;;;;;;12.57;2.13;;;;;;;24.76;52.67;98990.66;10290373;28;20561;-69
2022/07/11 02:05:45;;;;;;;23.58;3.00;;;;;;;24.30;52.92;98926.97;10292668;28;20105;-68
2022/07/11 02:10:51;;;;;;;11.50;2.38;;;;;;;24.97;53.81;99038.16;10292623;28;20050;-69
2022/07/11 02:15:53;;;;;;;26.67;2.67;;;;;;;24.79;54.08;99044.41;10291756;28;20045;-69
2022/07/11 02:20:54;;;;;;;33.17;3.97;;;;;;;24.71;55.02;99045.88;10291736;28;20047;-69
2022/07/11 02:25:55;;;;;;;60.70;4.80;;;;;;;24.31;54.43;99001.03;10292099;28;20565;-69
2022/07/11 02:30:56;;;;;;;34.03;8.40;;;;;;;23.89;54.84;98943.75;10291198;28;20129;-68
2022/07/11 02:35:56;;;;;;;20.38;3.33;;;;;;;24.85;54.05;99092.09;10292008;28;20430;-69
2022/07/11 02:40:58;;;;;;;28.17;2.50;;;;;;;25.01;53.21;99107.09;10292310;28;20046;-69
2022/07/11 02:46:00;;;;;;;22.50;2.33;;;;;;;25.01;53.02;99055.50;10299955;28;20402;-69
2022/07/11 02:51:01;;;;;;;26.35;2.83;;;;;;;25.33;51.91;99086.53;10298022;28;20396;-69
2022/07/11 02:56:02;;;;;;;14.98;2.47;;;;;;;25.57;51.17;99086.41;10298543;28;20215;-69
2022/07/11 03:01:02;;;;;;;13.63;2.33;;;;;;;25.85;50.68;99062.06;10298495;28;20134;-69
2022/07/11 03:06:03;;;;;;;101.28;6.93;;;;;;;26.66;50.63;99086.88;10298807;28;20050;-69
2022/07/11 03:11:05;;;;;;;16.00;3.38;;;;;;;27.19;48.77;99067.19;10297779;28;20578;-69
2022/07/11 03:16:06;;;;;;;13.77;2.53;;;;;;;27.33;47.58;98982.59;10297776;28;20093;-69
2022/07/11 03:21:08;;;;;;;23.15;4.13;;;;;;;28.27;46.82;99078.06;10297398;28;20043;-69
2022/07/11 03:26:08;;;;;;;8.32;2.33;;;;;;;27.87;45.61;98974.34;10298280;28;20049;-69
2022/07/11 03:31:10;;;;;;;11.45;2.45;;;;;;;29.47;43.85;99071.16;10297535;28;20462;-69
2022/07/11 03:36:11;;;;;;;19.80;2.95;;;;;;;30.17;41.86;99047.13;10297560;28;20050;-68
2022/07/11 03:41:12;;;;;;;10.77;2.08;;;;;;;30.77;40.83;99089.03;10297391;28;20130;-69
2022/07/11 03:46:13;;;;;;;10.40;2.30;;;;;;;31.06;40.28;99076.44;10291273;28;20388;-69
2022/07/11 03:51:14;;;;;;;11.88;2.55;;;;;;;31.23;39.84;99092.75;10264945;28;20481;-69
2022/07/11 03:56:17;;;;;;;12.20;2.58;;;;;;;31.13;39.26;98999.88;10256272;29;20045;-70
2022/07/11 04:01:19;;;;;;;11.63;2.47;;;;;;;31.96;38.79;99070.25;10256140;29;20122;-69
2022/07/11 04:06:20;;;;;;;24.63;3.50;;;;;;;31.81;38.85;99084.63;10256602;29;20074;-69
2022/07/11 04:11:21;;;;;;;21.02;2.75;;;;;;;31.76;38.44;99071.09;10255747;29;20334;-70
2022/07/11 04:16:22;;;;;;;14.93;2.63;;;;;;;32.19;37.75;99040.38;10287066;28;20509;-70
2022/07/11 04:21:23;;;;;;;19.77;2.97;;;;;;;32.69;37.06;99093.38;10255276;29;20043;-69
2022/07/11 04:26:23;;;;;;;17.77;2.78;;;;;;;31.89;36.96;98949.16;10279444;28;20050;-69
2022/07/11 04:31:25;;;;;;;13.43;2.78;;;;;;;32.90;36.85;99093.22;10293405;28;20067;-67
2022/07/11 04:36:26;;;;;;;28.67;2.87;;;;;;;33.16;36.38;99107.41;10325007;28;20047;-71
2022/07/11 04:41:27;;;;;;;12.30;3.00;;;;;;;32.74;35.77;99016.94;10286884;28;20054;-71
2022/07/11 04:46:28;;;;;;;13.95;2.50;;;;;;;32.78;36.63;99110.56;10294090;28;20050;-69
2022/07/11 04:51:29;;;;;;;13.27;2.33;;;;;;;32.47;37.33;99113.91;10293892;28;20053;-70
2022/07/11 04:56:30;;;;;;;11.73;3.08;;;;;;;32.15;37.51;99121.88;10294522;28;20057;-69
2022/07/11 05:01:31;;;;;;;10.10;2.30;;;;;;;32.17;37.19;99107.81;10293963;28;20043;-69
2022/07/11 05:06:32;;;;;;;15.82;2.42;;;;;;;31.61;37.26;99012.94;10293491;28;20117;-69
2022/07/11 05:11:33;;;;;;;16.20;3.03;;;;;;;31.27;36.97;98958.44;10293277;28;20057;-69
2022/07/11 05:16:34;;;;;;;13.65;2.63;;;;;;;32.39;36.85;99137.56;10293897;28;20090;-69
2022/07/11 05:21:35;;;;;;;10.05;2.45;;;;;;;32.11;36.68;99136.66;10293488;28;20047;-68
2022/07/11 05:26:36;;;;;;;10.05;2.47;;;;;;;31.95;38.50;99145.56;10292673;28;20520;-69
2022/07/11 05:31:37;;;;;;;10.45;2.60;;;;;;;30.42;38.16;98968.69;10293121;28;20081;-68
2022/07/11 05:36:39;;;;;;;11.60;2.53;;;;;;;30.69;38.35;99030.41;10293827;28;20419;-68
2022/07/11 05:41:40;;;;;;;;;;;;;;;31.90;37.12;99150.47;10293839;28;20549;-69
2022/07/11 05:46:41;;;;;;;37.85;4.07;;;;;;;31.65;37.82;99136.63;10292756;28;19972;-69
2022/07/11 05:51:41;;;;;;;13.68;2.70;;;;;;;31.59;37.92;99149.75;10291950;28;20049;-69
2022/07/11 05:56:42;;;;;;;13.07;2.67;;;;;;;31.41;38.55;99109.06;10292108;28;20039;-69
2022/07/11 06:01:43;;;;;;;43.67;5.10;;;;;;;31.72;38.25;99147.84;10292176;28;20042;-69
2022/07/11 06:06:44;;;;;;;23.25;3.50;;;;;;;31.20;38.54;99041.28;10291532;28;20409;-69
2022/07/11 06:11:45;;;;;;;14.43;2.58;;;;;;;31.52;38.10;99107.50;10291483;28;20101;-69
2022/07/11 06:16:46;;;;;;;16.90;2.60;;;;;;;31.84;37.35;99156.13;10291827;28;20558;-70
2022/07/11 06:21:47;;;;;;;18.45;2.92;;;;;;;31.30;37.42;99060.06;10291546;28;20035;-70
2022/07/11 06:26:48;;;;;;;27.05;3.28;;;;;;;31.58;37.26;99115.19;10291495;28;20446;-70
2022/07/11 06:31:48;;;;;;;20.10;2.75;;;;;;;31.94;36.91;99157.66;10291604;28;20124;-68
2022/07/11 06:36:50;;;;;;;12.40;3.22;;;;;;;31.30;37.15;99042.81;10291034;28;20050;-70
2022/07/11 06:41:51;;;;;;;14.27;3.20;;;;;;;32.15;37.42;99174.06;10291837;28;20039;-70
2022/07/11 06:46:52;;;;;;;12.80;2.70;;;;;;;32.33;36.41;99187.63;10291351;28;20126;-70
2022/07/11 06:51:52;;;;;;;24.38;3.40;;;;;;;32.40;36.78;99207.09;10291761;28;20069;-68
2022/07/11 06:56:53;;;;;;;16.40;3.10;;;;;;;32.37;36.69;99197.59;10291140;28;20483;-69
2022/07/11 07:01:54;;;;;;;19.33;3.90;;;;;;;31.93;36.85;99081.91;10291187;28;20514;-68
2022/07/11 07:06:55;;;;;;;18.95;3.33;;;;;;;32.50;36.16;99165.47;10290313;28;20046;-70
2022/07/11 07:11:55;;;;;;;15.52;3.08;;;;;;;32.93;36.65;99188.81;10290298;28;20047;-69
2022/07/11 07:16:56;;;;;;;20.23;3.80;;;;;;;33.02;35.50;99194.22;10290650;28;20047;-68
2022/07/11 07:21:57;;;;;;;22.90;3.70;;;;;;;33.18;35.88;99198.66;10290759;28;20058;-70
2022/07/11 07:26:58;;;;;;;25.00;3.88;;;;;;;32.69;35.00;99083.19;10291070;28;20053;-69
2022/07/11 07:31:59;;;;;;;50.45;4.65;;;;;;;33.60;35.33;99206.63;10297867;28;20513;-70
2022/07/11 07:37:00;;;;;;;35.22;4.72;;;;;;;33.39;35.62;99170.97;10297755;28;20046;-68
2022/07/11 07:42:01;;;;;;;16.20;3.03;;;;;;;33.62;35.08;99207.03;10297668;28;20095;-70
2022/07/11 07:47:02;;;;;;;13.73;3.33;;;;;;;33.77;35.50;99219.25;10297522;28;20035;-68
2022/07/11 07:52:03;;;;;;;21.30;3.58;;;;;;;33.93;35.09;99222.09;10327634;28;20137;-69
2022/07/11 07:57:04;;;;;;;15.55;3.85;;;;;;;33.80;34.88;99193.78;10296309;28;20046;-68
2022/07/11 08:02:05;;;;;;;18.80;3.55;;;;;;;33.94;34.81;99215.41;10296615;28;20050;-68
2022/07/11 08:07:06;;;;;;;39.47;4.57;;;;;;;33.31;35.35;99160.09;10296810;28;20069;-67
2022/07/11 08:12:07;;;;;;;42.13;5.80;;;;;;;33.09;35.88;99120.97;10296179;28;20054;-69
2022/07/11 08:17:07;;;;;;;24.80;4.10;;;;;;;33.23;36.17;99205.88;10295453;28;20043;-69
2022/07/11 08:22:08;;;;;;;19.77;3.58;;;;;;;33.25;36.62;99205.53;10295389;28;20062;-68
2022/07/11 08:27:09;;;;;;;42.28;5.15;;;;;;;33.43;36.92;99242.66;10295822;28;20043;-70
2022/07/11 08:32:12;;;;;;;25.92;4.63;;;;;;;33.63;36.89;99243.66;10295725;28;20507;-69
2022/07/11 08:37:13;;;;;;;29.65;4.90;;;;;;;32.87;36.57;99152.47;10295388;28;20042;-68
2022/07/11 08:42:18;;;;;;;14.60;4.00;;;;;;;33.55;36.99;99283.16;10295070;28;20109;-69
2022/07/11 08:47:19;;;;;;;35.47;6.18;;;;;;;33.31;36.78;99273.75;10295036;28;20488;-69
2022/07/11 08:52:21;;;;;;;26.38;5.07;;;;;;;33.29;37.21;99273.28;10294369;28;20051;-68
2022/07/11 08:57:22;;;;;;;39.90;4.47;;;;;;;33.14;36.53;99276.75;10293856;28;20039;-71
2022/07/11 09:02:24;;;;;;;31.25;4.85;;;;;;;33.21;36.19;99298.19;10294311;28;20423;-69
2022/07/11 09:07:26;;;;;;;27.50;5.00;;;;;;;32.03;36.15;99088.91;10293717;28;20043;-68
2022/07/11 09:12:27;;;;;;;33.40;4.30;;;;;;;33.19;36.27;99293.03;10293979;28;20301;-73
2022/07/11 09:17:32;;;;;;;21.95;3.58;;;;;;;33.13;36.63;99297.97;10293164;28;20039;-68
2022/07/11 09:28:04;;;;;;;13.63;3.22;;;;;;;33.23;36.00;99324.22;10292698;28;20065;-68
2022/07/11 09:33:09;;;;;;;17.23;3.38;;;;;;;33.22;35.81;99299.81;10293361;28;20205;-68
2022/07/11 09:38:13;;;;;;;27.38;3.80;;;;;;;33.48;35.23;99303.00;10292924;28;20109;-69
2022/07/11 09:43:17;;;;;;;20.73;3.20;;;;;;;33.77;34.76;99348.72;10293353;28;20042;-71
2022/07/11 09:48:18;;;;;;;20.92;3.03;;;;;;;33.49;34.93;99320.31;10292463;28;20039;-71
2022/07/11 09:53:20;;;;;;;32.13;4.25;;;;;;;33.73;35.57;99341.53;10291434;28;20129;-68
2022/07/11 09:58:28;;;;;;;10.07;2.58;;;;;;;33.17;35.12;99259.53;10290801;28;20089;-70
2022/07/11 10:03:29;;;;;;;14.55;2.83;;;;;;;33.59;35.04;99320.66;10280760;28;20418;-71
2022/07/11 10:08:33;;;;;;;12.85;2.97;;;;;;;33.55;35.02;99324.44;10284221;28;20050;-71
2022/07/11 10:13:35;;;;;;;13.25;2.88;;;;;;;33.08;34.72;99245.91;10283697;28;20601;-70
2022/07/11 10:18:41;;;;;;;30.67;3.95;;;;;;;34.00;34.22;99360.03;10251511;29;20098;-69
2022/07/11 10:24:00;;;;;;;18.33;3.20;;;;;;;34.00;33.99;99354.53;10252188;29;20079;-68
2022/07/11 10:29:06;;;;;;;28.63;3.95;;;;;;;33.39;34.47;99270.06;10282401;28;20102;-68
2022/07/11 10:34:16;;;;;;;13.73;2.85;;;;;;;33.36;34.08;99265.25;10250995;29;20511;-68
2022/07/11 10:39:29;;;;;;;10.88;2.13;;;;;;;33.99;33.59;99380.50;10251575;29;20046;-70
2022/07/11 10:44:51;;;;;;;22.60;3.22;;;;;;;34.21;33.02;99379.19;10251113;28;20040;-71
2022/07/11 10:49:52;;;;;;;;;;;;;;;34.47;33.07;99375.19;10268470;28;20043;-70
2022/07/11 10:55:20;;;;;;;27.30;3.85;;;;;;;33.64;32.64;99278.31;10281119;28;19922;-68
2022/07/11 11:00:21;;;;;;;15.07;2.65;;;;;;;33.98;32.40;99325.72;10281544;28;20107;-70
2022/07/11 11:05:49;;;;;;;27.15;3.55;;;;;;;34.62;32.20;99392.97;10291928;28;20097;-71
2022/07/11 11:10:51;;;;;;;15.02;2.85;;;;;;;34.53;31.97;99404.13;10292694;28;20043;-70
2022/07/11 11:15:54;;;;;;;20.52;2.67;;;;;;;34.01;31.58;99292.75;10291191;28;20039;-68
2022/07/11 11:21:00;;;;;;;12.73;2.08;;;;;;;34.69;31.57;99404.97;10293328;28;20065;-71
2022/07/11 11:26:14;;;;;;;15.70;2.60;;;;;;;34.51;30.96;99382.38;10323432;28;20093;-70
2022/07/11 11:31:18;;;;;;;19.67;2.47;;;;;;;34.59;31.05;99388.94;10292534;28;20069;-69
2022/07/11 11:36:22;;;;;;;14.70;2.33;;;;;;;34.68;30.38;99408.09;10289915;28;20499;-69
2022/07/11 11:41:30;;;;;;;6.93;1.90;;;;;;;34.57;30.64;99416.06;10292133;28;20046;-69
2022/07/11 11:46:34;;;;;;;8.75;2.10;;;;;;;34.28;30.84;99362.88;10287954;28;20077;-71
2022/07/11 11:51:36;;;;;;;12.73;2.25;;;;;;;34.16;31.05;99313.28;10291958;28;20046;-70
2022/07/11 11:56:39;;;;;;;20.83;2.13;;;;;;;34.89;31.52;99416.94;10292336;28;20034;-68
2022/07/11 12:01:40;;;;;;;;;;;;;;;35.10;30.50;99433.28;10286325;28;20039;-71
2022/07/11 12:06:43;;;;;;;12.48;2.30;;;;;;;35.06;31.21;99417.78;10291321;28;20337;-70
2022/07/11 12:11:47;;;;;;;5.97;1.70;;;;;;;35.11;30.76;99423.06;10335221;28;20152;-69
2022/07/11 12:16:48;;;;;;;8.98;1.75;;;;;;;34.31;30.81;99300.69;10336656;28;20042;-68
2022/07/11 12:21:52;;;;;;;9.52;2.03;;;;;;;34.50;30.78;99335.88;10335855;28;20450;-68
2022/07/11 12:26:53;;;;;;;35.38;4.35;;;;;;;35.08;30.39;99432.03;10335575;28;20042;-67
2022/07/11 12:31:55;;;;;;;4.70;1.77;;;;;;;33.89;30.79;99253.44;10335819;28;20498;-68
2022/07/11 12:37:05;;;;;;;;;;;;;;;35.34;30.94;99448.09;10336001;28;20053;-69
2022/07/11 12:42:24;;;;;;;12.55;2.00;;;;;;;35.02;31.53;99456.31;10326570;28;19944;-70
2022/07/11 12:47:27;;;;;;;10.65;2.38;;;;;;;34.60;32.42;99466.97;10321588;28;20038;-69
2022/07/11 12:52:40;;;;;;;7.18;1.92;;;;;;;34.33;32.73;99483.09;10332904;28;20414;-72
2022/07/11 12:57:41;;;;;;;9.48;2.08;;;;;;;33.67;32.92;99447.56;10333186;28;20073;-72
2022/07/11 13:02:47;;;;;;;16.40;2.90;;;;;;;33.79;33.63;99505.41;10329388;28;20541;-69
2022/07/11 13:13:08;;;;;;;10.95;2.67;;;;;;;33.55;34.56;99504.22;10330538;28;20069;-69
2022/07/11 13:18:09;;;;;;;5.70;2.20;;;;;;;33.44;34.29;99522.31;10324048;28;20125;-69
2022/07/11 13:23:10;;;;;;;6.40;2.30;;;;;;;32.17;35.04;99424.56;10323956;28;20034;-69
2022/07/11 13:28:11;;;;;;;6.20;1.98;;;;;;;32.58;34.88;99543.97;10325231;28;20490;-73
2022/07/11 13:33:12;;;;;;;6.28;1.83;;;;;;;32.12;35.31;99520.13;10324490;28;20058;-69
2022/07/11 13:38:14;;;;;;;10.45;1.90;;;;;;;31.95;35.77;99537.50;10320456;28;20549;-68
2022/07/11 13:43:16;;;;;;;7.10;2.00;;;;;;;30.75;35.95;99398.34;10323392;28;20391;-68
2022/07/11 13:48:16;;;;;;;5.00;1.88;;;;;;;30.28;36.50;99386.47;10321099;28;20096;-68
2022/07/11 13:53:18;;;;;;;3.97;1.15;;;;;;;30.24;36.26;99447.38;10319698;28;20092;-69
2022/07/11 13:58:25;;;;;;;3.47;1.45;;;;;;;30.87;36.56;99597.88;10325108;28;20038;-68
2022/07/11 14:03:26;;;;;;;3.90;1.38;;;;;;;30.69;36.61;99627.16;10315769;28;20053;-67
2022/07/11 14:08:28;;;;;;;5.10;1.77;;;;;;;30.40;37.82;99636.78;10326695;28;20542;-68
2022/07/11 14:13:30;;;;;;;11.17;1.73;;;;;;;30.26;37.87;99633.34;10313183;28;20506;-68
2022/07/11 14:18:31;;;;;;;6.57;1.88;;;;;;;29.50;38.23;99541.13;10324816;28;20328;-68
2022/07/11 14:23:33;;;;;;;8.98;2.00;;;;;;;29.99;38.47;99659.78;10325970;28;20049;-67
2022/07/11 14:28:34;;;;;;;11.30;1.80;;;;;;;29.86;39.05;99677.09;10331595;28;20068;-69
2022/07/11 14:33:35;;;;;;;4.88;1.80;;;;;;;28.50;39.94;99503.06;10331721;28;20328;-72
2022/07/11 14:38:36;;;;;;;12.10;1.90;;;;;;;28.80;40.23;99569.88;10316926;28;20046;-70
2022/07/11 14:43:37;;;;;;;13.10;2.35;;;;;;;29.19;40.66;99646.94;10319374;28;20050;-69
2022/07/11 14:48:38;;;;;;;7.15;1.80;;;;;;;29.29;41.00;99677.63;10339447;28;20491;-70
2022/07/11 14:53:39;;;;;;;9.25;2.03;;;;;;;29.24;40.59;99707.81;10338125;28;20046;-68
2022/07/11 14:58:41;;;;;;;11.90;2.70;;;;;;;29.08;40.97;99712.81;10338986;28;20092;-69
2022/07/11 15:03:43;;;;;;;12.75;2.25;;;;;;;28.89;41.38;99723.03;10339025;28;20042;-68
2022/07/11 15:14:04;;;;;;;9.05;2.38;;;;;;;28.39;42.07;99712.78;10338316;28;20132;-69
2022/07/11 15:19:09;;;;;;;7.55;2.17;;;;;;;28.27;42.53;99758.06;10337244;28;20395;-69
2022/07/11 15:24:10;;;;;;;4.28;2.20;;;;;;;28.16;42.77;99755.53;10338233;28;20038;-68
2022/07/11 15:29:12;;;;;;;6.10;2.45;;;;;;;28.08;43.16;99749.94;10338584;28;20069;-68
2022/07/11 15:34:13;;;;;;;4.77;2.20;;;;;;;28.12;43.71;99784.56;10338652;28;20140;-68
2022/07/11 15:39:14;;;;;;;10.63;2.20;;;;;;;27.97;43.87;99754.75;10360993;28;20507;-69
2022/07/11 15:44:15;;;;;;;13.18;2.25;;;;;;;27.88;44.60;99762.81;10327286;28;20125;-70
2022/07/11 15:49:16;;;;;;;13.85;2.63;;;;;;;27.91;45.33;99780.50;10314281;28;20158;-68
2022/07/11 15:54:18;;;;;;;30.52;3.78;;;;;;;27.81;45.89;99794.31;10351923;28;20526;-68
2022/07/11 15:59:20;;;;;;;16.92;3.47;;;;;;;27.01;46.77;99695.00;10324134;28;20518;-69
2022/07/11 16:04:21;;;;;;;12.37;2.90;;;;;;;27.67;46.96;99822.31;10296139;28;20530;-70
2022/07/11 16:09:23;;;;;;;13.57;2.67;;;;;;;26.46;47.57;99657.22;10327230;28;20039;-69
2022/07/11 16:14:24;;;;;;;6.60;2.30;;;;;;;27.53;48.08;99854.16;10297147;28;20066;-69
2022/07/11 16:19:27;;;;;;;11.85;2.83;;;;;;;27.46;48.29;99853.69;10296553;28;20043;-70
2022/07/11 16:24:30;;;;;;;;;;;;;;;27.59;46.86;99853.00;10296187;28;20490;-69
2022/07/11 16:29:32;;;;;;;10.88;2.75;;;;;;;26.16;48.25;99661.09;10326581;28;19921;-68
2022/07/11 16:34:33;;;;;;;16.02;2.85;;;;;;;26.85;49.41;99787.03;10295382;28;20043;-68
2022/07/11 16:44:53;;;;;;;13.93;3.72;;;;;;;26.92;50.64;99843.94;10321166;28;20041;-69
2022/07/11 16:49:54;;;;;;;10.00;3.67;;;;;;;26.94;50.93;99858.91;10334511;28;20046;-70
2022/07/11 16:54:55;;;;;;;22.65;4.32;;;;;;;26.95;51.57;99868.69;10328381;28;20061;-70
2022/07/11 16:59:55;;;;;;;9.38;3.35;;;;;;;26.66;51.92;99846.91;10310554;28;20049;-70
2022/07/11 17:04:57;;;;;;;16.30;3.55;;;;;;;26.84;52.27;99886.25;10301687;28;20042;-69
2022/07/11 17:09:59;;;;;;;10.50;4.05;;;;;;;26.10;52.53;99771.94;10332108;28;20127;-69
2022/07/11 17:15:00;;;;;;;7.65;3.40;;;;;;;26.73;52.67;99890.97;10332937;28;20050;-68
2022/07/11 17:20:01;;;;;;;11.63;3.40;;;;;;;26.68;53.25;99899.19;10315036;28;20043;-67
2022/07/11 17:25:03;;;;;;;11.63;3.22;;;;;;;26.60;54.10;99914.25;10293481;28;20043;-68
2022/07/11 17:30:05;;;;;;;19.38;3.50;;;;;;;25.88;54.36;99810.47;10330644;28;20065;-68
2022/07/11 17:35:06;;;;;;;8.10;3.40;;;;;;;25.99;54.60;99830.25;10332928;28;20192;-68
2022/07/11 17:40:08;;;;;;;20.15;4.47;;;;;;;26.62;55.09;99924.84;10364818;28;20085;-69
2022/07/11 17:45:09;;;;;;;5.75;3.28;;;;;;;26.60;55.27;99943.41;10314165;28;20039;-69
2022/07/11 17:50:10;;;;;;;8.93;3.53;;;;;;;26.57;55.28;99946.72;10293405;28;20082;-69
2022/07/11 17:55:12;;;;;;;8.65;3.33;;;;;;;26.45;55.91;99943.50;10320010;28;20058;-69
2022/07/11 18:00:15;;;;;;;9.93;3.28;;;;;;;26.49;56.17;99947.28;10327594;28;20042;-69
2022/07/11 18:05:16;;;;;;;5.88;3.05;;;;;;;26.46;56.44;99945.94;10326460;28;20046;-69
2022/07/11 18:10:17;;;;;;;11.52;3.30;;;;;;;26.44;56.62;99952.75;10323458;28;20038;-69
2022/07/11 18:15:18;;;;;;;14.55;3.88;;;;;;;25.74;57.37;99852.97;10325545;28;20502;-69
2022/07/11 18:20:19;;;;;;;9.70;3.45;;;;;;;26.31;57.51;99949.56;10363426;28;20137;-69
2022/07/11 18:25:20;;;;;;;6.40;3.65;;;;;;;26.24;57.61;99940.91;10330215;28;20129;-69
2022/07/11 18:30:21;;;;;;;8.95;3.78;;;;;;;25.79;57.97;99885.59;10330945;28;20065;-69
2022/07/11 18:35:24;;;;;;;17.23;4.13;;;;;;;26.35;58.20;99977.84;10331863;28;20169;-68
2022/07/11 18:45:44;;;;;;;7.25;3.42;;;;;;;26.27;58.87;99992.06;10324125;28;20053;-68
2022/07/11 18:50:44;;;;;;;14.38;4.13;;;;;;;25.60;59.40;99893.56;10309697;28;20045;-68
2022/07/11 18:55:45;;;;;;;13.02;3.92;;;;;;;26.26;59.58;99995.88;10311948;28;20050;-69
2022/07/11 19:00:46;;;;;;;8.68;3.85;;;;;;;26.25;60.10;100002.41;10304249;28;20043;-68
2022/07/11 19:05:47;;;;;;;20.50;4.65;;;;;;;26.15;60.24;100006.03;10355532;28;20076;-68
2022/07/11 19:10:48;;;;;;;43.22;4.70;;;;;;;25.23;61.25;99896.69;10330480;28;20130;-68
2022/07/11 19:15:49;;;;;;;12.25;3.90;;;;;;;25.58;61.32;99982.00;10293716;28;20462;-68
2022/07/11 19:20:50;;;;;;;15.88;4.05;;;;;;;25.44;61.99;99976.31;10291538;28;20470;-68
2022/07/11 19:25:51;;;;;;;9.27;3.53;;;;;;;25.64;62.78;100027.94;10311710;28;20042;-68
2022/07/11 19:30:52;;;;;;;9.70;3.92;;;;;;;25.55;63.11;100018.72;10297897;28;20062;-68
2022/07/11 19:35:53;;;;;;;13.23;4.75;;;;;;;24.87;64.04;99942.91;10313068;28;20042;-69
2022/07/11 19:40:56;;;;;;;10.63;4.32;;;;;;;24.57;64.00;99919.28;10337208;28;20038;-69
2022/07/11 19:45:56;;;;;;;16.20;4.25;;;;;;;25.21;63.32;100013.03;10336589;28;20073;-68
2022/07/11 19:50:57;;;;;;;12.70;4.60;;;;;;;25.41;63.49;100042.13;10337224;28;20078;-68
2022/07/11 20:01:17;;;;;;;15.32;4.40;;;;;;;25.15;64.73;100052.19;10337036;28;20501;-68
2022/07/11 20:06:18;;;;;;;15.23;4.65;;;;;;;25.05;65.39;100042.91;10336243;28;20132;-69
2022/07/11 20:11:18;;;;;;;25.02;5.20;;;;;;;24.22;65.79;99904.53;10336329;28;20046;-69
2022/07/11 20:16:19;;;;;;;18.27;5.00;;;;;;;25.00;66.35;100042.91;10336489;28;20057;-69
2022/07/11 20:21:20;;;;;;;9.43;4.53;;;;;;;24.98;66.53;100052.44;10336253;28;20387;-69
2022/07/11 20:26:21;;;;;;;16.25;5.40;;;;;;;24.76;66.82;100041.78;10333684;28;20453;-68
2022/07/11 20:31:22;;;;;;;22.27;6.68;;;;;;;24.07;67.95;99978.59;10324322;28;20093;-69
2022/07/11 20:36:23;;;;;;;26.92;7.32;;;;;;;24.56;68.53;100083.28;10335487;28;20057;-69
2022/07/11 20:41:25;;;;;;;24.98;6.22;;;;;;;24.57;68.88;100076.78;10334997;28;20097;-69
2022/07/11 20:46:26;;;;;;;18.35;6.30;;;;;;;24.35;69.41;100066.09;10334954;28;20549;-69
2022/07/11 20:51:27;;;;;;;13.02;5.90;;;;;;;23.13;69.11;99877.28;10334227;28;20168;-69
2022/07/11 20:56:28;;;;;;;20.60;7.00;;;;;;;24.12;69.95;100041.03;10334898;28;20499;-69
2022/07/11 21:01:29;;;;;;;12.70;5.55;;;;;;;23.61;70.19;99967.53;10334685;28;20054;-69
2022/07/11 21:06:29;;;;;;;11.77;4.93;;;;;;;24.27;69.73;100083.72;10318324;28;20031;-69
2022/07/11 21:11:30;;;;;;;14.20;4.88;;;;;;;24.02;70.29;100086.28;10293531;28;20054;-69
2022/07/11 21:16:32;;;;;;;28.70;7.03;;;;;;;23.15;71.29;99958.28;10316994;28;20039;-69
2022/07/11 21:21:33;;;;;;;19.02;6.00;;;;;;;23.81;71.78;100086.19;10333328;28;20533;-68
2022/07/11 21:26:33;;;;;;;27.92;5.75;;;;;;;23.50;71.89;100065.34;10330180;28;20126;-69
2022/07/11 21:31:34;;;;;;;22.05;5.70;;;;;;;23.67;72.67;100080.38;10292953;28;20105;-69
2022/07/11 21:36:35;;;;;;;30.73;6.18;;;;;;;23.61;72.46;100067.84;10293904;28;20099;-69
2022/07/11 21:41:36;;;;;;;17.83;5.20;;;;;;;23.65;72.45;100106.09;10293125;28;20142;-69
2022/07/11 21:46:37;;;;;;;16.98;5.05;;;;;;;23.56;72.72;100105.78;10292839;28;20478;-68
2022/07/11 21:51:38;;;;;;;13.20;4.90;;;;;;;23.53;73.26;100117.13;10291965;28;20050;-69
2022/07/11 21:56:38;;;;;;;12.82;5.40;;;;;;;23.00;73.28;100019.44;10292105;28;20110;-69
2022/07/11 22:01:39;;;;;;;13.50;5.47;;;;;;;23.26;73.36;100064.88;10324095;28;20049;-69
2022/07/11 22:06:40;;;;;;;17.15;6.63;;;;;;;23.37;73.90;100097.22;10292182;28;20042;-68
2022/07/11 22:11:41;;;;;;;29.08;6.75;;;;;;;23.32;73.62;100088.22;10291627;28;20577;-69
2022/07/11 22:16:42;;;;;;;31.10;6.78;;;;;;;23.38;74.02;100131.38;10322540;28;20487;-69
2022/07/11 22:21:43;;;;;;;18.27;6.00;;;;;;;23.24;74.59;100119.31;10322869;28;20046;-69
2022/07/11 22:26:44;;;;;;;16.50;6.03;;;;;;;23.06;75.00;100123.22;10291079;28;20114;-69
2022/07/11 22:31:44;;;;;;;26.90;5.60;;;;;;;22.93;75.57;100115.47;10323004;28;20062;-69
2022/07/11 22:36:45;;;;;;;14.23;5.50;;;;;;;22.37;76.04;100033.63;10323018;28;20538;-69
2022/07/11 22:41:46;;;;;;;12.80;5.18;;;;;;;22.62;76.50;100071.84;10306741;28;20054;-69
2022/07/11 22:46:48;;;;;;;32.08;5.75;;;;;;;22.34;76.64;100021.44;10322075;28;20126;-69
2022/07/11 22:51:48;;;;;;;9.23;4.80;;;;;;;23.12;76.47;100152.00;10291406;28;20050;-68
2022/07/11 22:56:49;;;;;;;13.70;5.25;;;;;;;22.97;76.74;100160.81;10291823;28;20039;-68
2022/07/11 23:01:50;;;;;;;18.40;5.28;;;;;;;23.11;76.39;100177.47;10299358;28;20042;-69
2022/07/11 23:06:51;;;;;;;13.43;4.93;;;;;;;23.07;75.82;100148.44;10298328;28;20046;-69
2022/07/11 23:11:51;;;;;;;23.88;5.55;;;;;;;23.35;75.22;100182.59;10298912;28;20133;-68
2022/07/11 23:16:52;;;;;;;23.08;6.82;;;;;;;22.70;75.17;100082.19;10298053;28;20038;-69
2022/07/11 23:21:53;;;;;;;16.30;4.75;;;;;;;22.51;75.58;100053.84;10298206;28;20074;-69
2022/07/11 23:26:54;;;;;;;15.27;4.95;;;;;;;23.27;75.79;100191.16;10298849;28;20046;-69
2022/07/11 23:31:54;;;;;;;13.20;5.18;;;;;;;23.27;75.51;100196.59;10298218;28;20494;-68
2022/07/11 23:36:55;;;;;;;22.08;5.47;;;;;;;23.37;75.71;100204.84;10297738;28;20058;-69
2022/07/11 23:41:57;;;;;;;15.05;5.00;;;;;;;23.12;76.07;100197.25;10297728;28;20068;-69